Time;durP1;ratioP1;P1;durP2;ratioP2;P2;SDS_P1;SDS_P2;PMS_P1;PMS_P2;Temp;Humidity;BMP_temperature;BMP_pressure;BME280_temperature;BME280_humidity;BME280_pressure;Samples;Min_cycle;Max_cycle;Signal;HPM_P1;HPM_P2
2021/01/28 00:00:31;;;;;;;;;;;;;;;20.15;32.96;99994.72;5075832;28;814;-52
2021/01/28 00:02:57;;;;;;;;;;;;;;;19.65;33.86;99990.16;5077972;28;812;-49
2021/01/28 00:05:23;;;;;;;;;;;;;;;19.83;33.67;99994.69;5079130;28;774;-50
2021/01/28 00:07:48;;;;;;;;;;;;;;;20.52;32.45;100001.72;5060871;28;1996;-49
2021/01/28 00:10:14;;;;;;;;;;;;;;;20.54;32.30;99997.78;5079471;28;819;-50
2021/01/28 00:12:39;;;;;;;;;;;;;;;20.22;32.58;99991.50;5079608;28;974;-48
2021/01/28 00:15:05;;;;;;;;;;;;;;;19.93;33.34;100006.59;5079438;28;792;-53
2021/01/28 00:17:30;;;;;;;;;;;;;;;19.21;34.50;100011.03;5079380;28;764;-46
2021/01/28 00:19:56;;;;;;;;;;;;;;;20.07;33.00;100001.00;5078809;28;775;-51
2021/01/28 00:22:21;;;;;;;;;;;;;;;20.74;31.92;100001.97;5079164;28;764;-49
2021/01/28 00:24:47;;;;;;;;;;;;;;;20.29;32.64;100005.69;5079267;28;756;-52
2021/01/28 00:27:12;;;;;;;;;;;;;;;20.27;32.67;100007.91;5079099;28;808;-48
2021/01/28 00:29:38;;;;;;;;;;;;;;;19.54;33.76;100010.84;5079698;28;1914;-48
2021/01/28 00:32:03;;;;;;;;;;;;;;;20.36;32.64;100011.56;5079021;28;744;-48
2021/01/28 00:34:29;;;;;;;;;;;;;;;20.78;31.66;100014.81;5078655;28;811;-52
2021/01/28 00:36:54;;;;;;;;;;;;;;;20.32;32.60;100018.84;5078878;28;882;-52
2021/01/28 00:39:19;;;;;;;;;;;;;;;20.18;32.66;100007.88;5079036;28;887;-46
2021/01/28 00:41:45;;;;;;;;;;;;;;;19.65;33.73;100012.22;5078462;28;851;-57
2021/01/28 00:44:10;;;;;;;;;;;;;;;19.72;33.52;100009.84;5079236;28;955;-46
2021/01/28 00:46:36;;;;;;;;;;;;;;;20.51;32.12;100016.66;5078850;28;1738;-52
2021/01/28 00:49:02;;;;;;;;;;;;;;;20.39;32.32;100016.44;5078486;28;1910;-53
2021/01/28 00:51:27;;;;;;;;;;;;;;;20.12;32.75;100009.97;5060875;28;954;-47
2021/01/28 00:53:53;;;;;;;;;;;;;;;19.78;33.46;100013.28;5078758;28;739;-49
2021/01/28 00:56:18;;;;;;;;;;;;;;;19.31;34.33;100010.81;5060093;28;1220;-50
2021/01/28 00:58:50;;;;;;;;;;;;;;;20.12;32.90;100011.94;5079330;28;1158;-53
2021/01/28 01:01:19;;;;;;;;;;;;;;;20.70;31.63;100012.84;5080836;28;1209;-50
2021/01/28 01:03:45;;;;;;;;;;;;;;;20.10;32.88;100020.50;5080494;28;1137;-48
2021/01/28 01:06:10;;;;;;;;;;;;;;;20.02;32.99;100023.22;5098900;28;752;-48
2021/01/28 01:08:36;;;;;;;;;;;;;;;19.41;33.85;100029.88;5098830;28;1977;-52
2021/01/28 01:11:12;;;;;;;;;;;;;;;20.27;32.61;100024.50;5098190;28;858;-52
2021/01/28 01:13:39;;;;;;;;;;;;;;;20.75;31.42;100026.53;5096935;28;957;-46
2021/01/28 01:16:13;;;;;;;;;;;;;;;20.17;32.52;100031.09;5080033;28;1284;-48
2021/01/28 01:18:43;;;;;;;;;;;;;;;19.94;33.14;100035.84;5098445;28;811;-49
2021/01/28 01:21:09;;;;;;;;;;;;;;;19.29;34.35;100046.97;5080679;28;1133;-46
2021/01/28 01:23:36;;;;;;;;;;;;;;;19.91;33.12;100036.44;5080286;28;954;-48
2021/01/28 01:26:09;;;;;;;;;;;;;;;20.53;31.96;100035.66;5079628;28;1538;-48
2021/01/28 01:28:34;;;;;;;;;;;;;;;20.31;32.29;100028.25;5079030;28;1918;-48
2021/01/28 01:31:05;;;;;;;;;;;;;;;20.12;32.69;100031.25;5080208;28;1243;-48
2021/01/28 01:33:32;;;;;;;;;;;;;;;19.71;33.52;100038.53;5079987;28;1162;-52
2021/01/28 01:36:03;;;;;;;;;;;;;;;19.99;33.12;100041.22;5080097;28;1260;-55
2021/01/28 01:38:31;;;;;;;;;;;;;;;20.71;31.71;100047.63;5080135;28;1197;-49
2021/01/28 01:40:57;;;;;;;;;;;;;;;20.27;32.28;100038.28;5079605;28;1335;-54
2021/01/28 01:43:22;;;;;;;;;;;;;;;20.22;32.46;100035.69;5096639;28;993;-56
2021/01/28 01:45:49;;;;;;;;;;;;;;;19.59;33.62;100043.81;5079867;28;950;-47
2021/01/28 01:48:38;;;;;;;;;;;;;;;20.16;32.49;100048.78;5097357;28;1981;-53
2021/01/28 01:51:10;;;;;;;;;;;;;;;20.74;31.51;100046.97;5067104;28;1317;-44
2021/01/28 01:53:47;;;;;;;;;;;;;;;20.27;32.38;100041.88;5079850;28;1358;-55
2021/01/28 01:56:14;;;;;;;;;;;;;;;20.13;32.50;100055.78;5063174;28;1212;-51
2021/01/28 01:58:59;;;;;;;;;;;;;;;19.49;33.95;100045.69;5078941;28;1190;-48
2021/01/28 02:01:45;;;;;;;;;;;;;;;19.92;33.30;100057.41;5077113;28;634;-52
2021/01/28 02:04:31;;;;;;;;;;;;;;;20.68;31.81;100062.09;5032238;28;1249;-55
2021/01/28 02:07:25;;;;;;;;;;;;;;;20.18;32.66;100060.34;5063494;28;1346;-54
2021/01/28 02:10:11;;;;;;;;;;;;;;;19.94;32.76;100057.91;5061798;28;1910;-53
2021/01/28 02:12:56;;;;;;;;;;;;;;;19.27;34.40;100071.25;5077175;28;940;-54
2021/01/28 02:15:22;;;;;;;;;;;;;;;20.15;32.55;100072.81;5043031;28;1158;-47
2021/01/28 02:17:49;;;;;;;;;;;;;;;20.68;31.50;100073.94;5047088;28;1286;-46
2021/01/28 02:20:39;;;;;;;;;;;;;;;20.21;32.59;100072.69;5043540;28;1123;-47
2021/01/28 02:23:49;;;;;;;;;;;;;;;19.95;32.82;100070.56;5044443;28;1183;-48
2021/01/28 02:26:24;;;;;;;;;;;;;;;19.71;33.32;100071.63;5020217;28;1289;-52
2021/01/28 02:28:51;;;;;;;;;;;;;;;20.39;32.06;100074.41;5050093;28;1918;-50
2021/01/28 02:31:16;;;;;;;;;;;;;;;20.88;31.37;100082.00;5042000;28;1276;-49
2021/01/28 02:33:55;;;;;;;;;;;;;;;20.31;32.21;100083.47;5058816;28;859;-51
2021/01/28 02:36:28;;;;;;;;;;;;;;;19.88;32.84;100082.06;5076786;28;614;-51
2021/01/28 02:38:54;;;;;;;;;;;;;;;19.52;33.40;100079.25;5058519;28;1312;-52
2021/01/28 02:41:21;;;;;;;;;;;;;;;20.06;32.66;100077.44;5075530;28;1146;-52
2021/01/28 02:44:13;;;;;;;;;;;;;;;20.76;31.70;100079.81;5059177;28;1082;-51
2021/01/28 02:47:16;;;;;;;;;;;;;;;20.19;32.26;100086.81;4975398;28;1171;-48
2021/01/28 02:50:02;;;;;;;;;;;;;;;19.96;32.66;100099.78;4975629;28;1977;-48
2021/01/28 02:52:29;;;;;;;;;;;;;;;19.48;33.94;100096.44;5033319;28;1180;-45
2021/01/28 02:55:03;;;;;;;;;;;;;;;20.33;32.36;100095.81;5054695;28;1388;-50
2021/01/28 02:57:29;;;;;;;;;;;;;;;20.51;31.71;100093.97;5064083;28;1149;-48
2021/01/28 02:59:59;;;;;;;;;;;;;;;20.23;32.37;100098.03;5055163;28;1224;-48
2021/01/28 03:02:25;;;;;;;;;;;;;;;19.83;32.82;100099.53;5071507;28;1931;-54
2021/01/28 03:04:51;;;;;;;;;;;;;;;19.30;33.94;100095.44;5055404;28;1161;-47
2021/01/28 03:07:21;;;;;;;;;;;;;;;20.16;32.68;100091.00;5072295;28;869;-49
2021/01/28 03:09:47;;;;;;;;;;;;;;;20.76;31.29;100100.00;5056207;28;1914;-46
2021/01/28 03:12:34;;;;;;;;;;;;;;;20.32;31.96;100099.72;5072547;28;1260;-50
2021/01/28 03:15:18;;;;;;;;;;;;;;;19.99;32.81;100096.41;5056212;28;698;-48
2021/01/28 03:17:45;;;;;;;;;;;;;;;19.61;33.55;100105.78;5054969;28;1232;-46
2021/01/28 03:20:11;;;;;;;;;;;;;;;20.02;32.53;100106.00;5055315;28;1097;-49
2021/01/28 03:22:38;;;;;;;;;;;;;;;20.72;31.47;100107.28;5055109;28;1302;-48
2021/01/28 03:25:29;;;;;;;;;;;;;;;20.29;32.14;100107.81;5055881;28;1075;-45
2021/01/28 03:27:56;;;;;;;;;;;;;;;20.12;32.58;100114.84;5059672;28;2080;-45
2021/01/28 03:30:24;;;;;;;;;;;;;;;19.57;33.38;100109.47;5076104;28;889;-49
2021/01/28 03:32:50;;;;;;;;;;;;;;;19.49;33.81;100113.81;5076086;28;767;-51
2021/01/28 03:35:16;;;;;;;;;;;;;;;20.36;32.02;100113.72;5075061;28;819;-47
2021/01/28 03:37:42;;;;;;;;;;;;;;;20.64;31.69;100125.41;5076964;28;1189;-49
2021/01/28 03:40:08;;;;;;;;;;;;;;;20.18;32.19;100121.88;5078905;28;1236;-46
2021/01/28 03:42:34;;;;;;;;;;;;;;;19.95;32.84;100126.56;5078889;28;1009;-46
2021/01/28 03:44:59;;;;;;;;;;;;;;;19.30;33.95;100128.50;5078900;28;1418;-48
2021/01/28 03:47:29;;;;;;;;;;;;;;;20.14;32.34;100126.38;5078678;28;1149;-45
2021/01/28 03:50:07;;;;;;;;;;;;;;;20.73;31.27;100132.94;5078872;28;1918;-51
2021/01/28 03:52:33;;;;;;;;;;;;;;;20.25;32.06;100139.94;5078821;28;1306;-50
2021/01/28 03:55:25;;;;;;;;;;;;;;;19.72;33.04;100139.47;5071465;28;1151;-51
2021/01/28 03:57:51;;;;;;;;;;;;;;;19.22;33.94;100136.69;5067214;28;1211;-47
2021/01/28 04:00:18;;;;;;;;;;;;;;;20.08;32.49;100137.88;5058538;28;1144;-48
2021/01/28 04:02:51;;;;;;;;;;;;;;;20.74;31.21;100140.91;5043201;28;1187;-47
2021/01/28 04:05:55;;;;;;;;;;;;;;;20.09;32.36;100140.31;5059482;28;1023;-48
2021/01/28 04:08:40;;;;;;;;;;;;;;;19.96;32.50;100138.41;5055300;28;1906;-46
2021/01/28 04:11:29;;;;;;;;;;;;;;;19.62;33.37;100139.72;5059425;28;1336;-47
2021/01/28 04:14:01;;;;;;;;;;;;;;;20.45;31.96;100144.94;5058723;28;1140;-46
2021/01/28 04:16:26;;;;;;;;;;;;;;;20.62;31.34;100144.25;5058085;28;1298;-48
2021/01/28 04:18:52;;;;;;;;;;;;;;;20.09;32.33;100145.00;5058030;28;1380;-52
2021/01/28 04:21:36;;;;;;;;;;;;;;;19.79;33.06;100145.41;5058474;28;1231;-51
2021/01/28 04:24:02;;;;;;;;;;;;;;;19.51;33.68;100152.91;5058013;28;1440;-53
2021/01/28 04:26:40;;;;;;;;;;;;;;;20.36;31.95;100152.38;5059428;28;1097;-50
2021/01/28 04:29:05;;;;;;;;;;;;;;;20.66;31.24;100161.81;5077234;28;1972;-53
2021/01/28 04:31:43;;;;;;;;;;;;;;;20.13;32.25;100160.66;5078232;28;823;-47
2021/01/28 04:34:29;;;;;;;;;;;;;;;19.82;32.77;100161.38;5078827;28;1047;-50
2021/01/28 04:36:57;;;;;;;;;;;;;;;19.23;34.21;100160.38;5077657;28;1208;-46
2021/01/28 04:39:58;;;;;;;;;;;;;;;20.26;32.26;100161.72;5056644;28;1169;-46
2021/01/28 04:42:34;;;;;;;;;;;;;;;20.60;31.46;100162.25;5074260;28;1025;-50
2021/01/28 04:44:59;;;;;;;;;;;;;;;20.08;32.26;100165.47;5040921;28;1372;-47
2021/01/28 04:47:26;;;;;;;;;;;;;;;19.78;32.76;100165.84;5057819;28;1153;-45
2021/01/28 04:49:55;;;;;;;;;;;;;;;19.26;33.62;100174.34;5058455;28;1906;-46
2021/01/28 04:52:27;;;;;;;;;;;;;;;20.12;32.25;100164.53;5057894;28;791;-53
2021/01/28 04:55:45;;;;;;;;;;;;;;;20.80;31.12;100172.81;5035621;28;1113;-56
2021/01/28 04:58:11;;;;;;;;;;;;;;;20.13;32.23;100181.91;5070628;28;1306;-54
2021/01/28 05:00:58;;;;;;;;;;;;;;;19.93;32.50;100177.69;5077032;28;1283;-55
2021/01/28 05:03:50;;;;;;;;;;;;;;;19.52;33.73;100181.28;5078619;28;1501;-54
2021/01/28 05:06:34;;;;;;;;;;;;;;;20.29;32.27;100185.13;5078348;28;653;-54
2021/01/28 05:09:35;;;;;;;;;;;;;;;20.97;30.87;100198.88;5065759;28;1924;-55
2021/01/28 05:12:22;;;;;;;;;;;;;;;20.49;31.78;100195.66;5078327;28;618;-56
2021/01/28 05:14:50;;;;;;;;;;;;;;;20.25;32.19;100200.69;5058981;28;868;-57
2021/01/28 05:17:58;;;;;;;;;;;;;;;19.78;33.22;100198.94;5058263;28;1051;-58
2021/01/28 05:20:46;;;;;;;;;;;;;;;19.69;33.28;100199.97;5058074;28;999;-56
2021/01/28 05:23:40;;;;;;;;;;;;;;;20.60;31.79;100201.75;5056605;28;945;-47
2021/01/28 05:26:24;;;;;;;;;;;;;;;20.12;32.48;100202.38;5056824;28;1362;-55
2021/01/28 05:29:11;;;;;;;;;;;;;;;19.99;32.65;100199.34;5047581;28;1902;-51
2021/01/28 05:31:57;;;;;;;;;;;;;;;19.34;33.99;100205.13;5056308;28;1240;-56
2021/01/28 05:34:43;;;;;;;;;;;;;;;20.13;32.37;100199.28;5057475;28;1043;-45
2021/01/28 05:37:28;;;;;;;;;;;;;;;20.59;31.51;100199.31;5056644;28;1322;-55
2021/01/28 05:40:29;;;;;;;;;;;;;;;20.16;32.26;100209.72;5057478;28;629;-55
2021/01/28 05:43:29;;;;;;;;;;;;;;;19.66;33.32;100202.22;5051424;28;1178;-49
2021/01/28 05:46:11;;;;;;;;;;;;;;;19.72;32.91;100205.69;5056019;28;1206;-55
2021/01/28 05:49:03;;;;;;;;;;;;;;;20.59;31.80;100210.34;5041392;28;1977;-54
2021/01/28 05:51:52;;;;;;;;;;;;;;;20.09;32.44;100206.56;5051167;28;1105;-55
2021/01/28 05:54:35;;;;;;;;;;;;;;;20.09;32.38;100214.84;5057530;28;812;-55
2021/01/28 05:57:26;;;;;;;;;;;;;;;19.40;33.47;100210.19;5062042;28;1237;-46
2021/01/28 06:00:12;;;;;;;;;;;;;;;19.87;32.74;100212.03;5039018;28;1448;-55
2021/01/28 06:02:53;;;;;;;;;;;;;;;20.72;31.38;100209.50;5056303;28;1424;-45
2021/01/28 06:05:41;;;;;;;;;;;;;;;20.22;31.98;100212.34;5056844;28;614;-55
2021/01/28 06:08:15;;;;;;;;;;;;;;;20.05;32.36;100219.34;5056072;28;1978;-56
2021/01/28 06:10:52;;;;;;;;;;;;;;;19.38;33.63;100228.19;5056180;28;1166;-53
2021/01/28 06:13:41;;;;;;;;;;;;;;;20.10;32.36;100223.94;5069759;28;922;-54
2021/01/28 06:16:26;;;;;;;;;;;;;;;20.66;31.54;100238.34;5076629;28;1011;-55
2021/01/28 06:19:11;;;;;;;;;;;;;;;20.16;32.25;100240.06;5075596;28;1237;-51
2021/01/28 06:21:46;;;;;;;;;;;;;;;19.89;32.77;100237.38;5075156;28;1339;-56
2021/01/28 06:24:48;;;;;;;;;;;;;;;19.45;33.66;100243.19;5076763;28;629;-56
2021/01/28 06:27:15;;;;;;;;;;;;;;;20.40;31.93;100247.25;5075917;28;1216;-55
2021/01/28 06:29:59;;;;;;;;;;;;;;;20.50;31.45;100247.00;5072210;28;1985;-54
2021/01/28 06:32:28;;;;;;;;;;;;;;;20.09;32.42;100247.13;5075471;28;1201;-56
2021/01/28 06:35:50;;;;;;;;;;;;;;;19.60;33.10;100247.59;5076436;28;680;-51
2021/01/28 06:38:56;;;;;;;;;;;;;;;20.27;32.02;100242.59;5054010;28;1024;-55
2021/01/28 06:41:45;;;;;;;;;;;;;;;20.80;31.08;100241.06;5044501;28;1021;-50
2021/01/28 06:44:44;;;;;;;;;;;;;;;20.26;32.03;100241.78;5057981;28;1544;-46
2021/01/28 06:47:39;;;;;;;;;;;;;;;19.96;32.51;100243.28;5078453;28;1067;-49
2021/01/28 06:50:13;;;;;;;;;;;;;;;19.82;32.99;100246.06;5078114;28;1918;-53
2021/01/28 06:52:46;;;;;;;;;;;;;;;20.32;31.99;100246.03;5078742;28;1162;-53
2021/01/28 06:55:27;;;;;;;;;;;;;;;20.27;31.96;100246.19;5096547;28;859;-53
2021/01/28 06:58:37;;;;;;;;;;;;;;;20.09;32.25;100247.97;5066220;28;1157;-49
2021/01/28 07:01:05;;;;;;;;;;;;;;;19.60;33.16;100246.75;5058075;28;1182;-54
2021/01/28 07:03:37;;;;;;;;;;;;;;;19.89;32.66;100254.72;5057913;28;804;-54
2021/01/28 07:06:58;;;;;;;;;;;;;;;20.59;31.57;100257.31;5057712;28;1353;-49
2021/01/28 07:09:45;;;;;;;;;;;;;;;20.09;32.05;100267.28;5051571;28;1909;-47
2021/01/28 07:12:13;;;;;;;;;;;;;;;19.93;32.35;100272.31;5041673;28;1225;-54
2021/01/28 07:14:57;;;;;;;;;;;;;;;19.31;33.51;100278.22;5075329;28;664;-53
2021/01/28 07:17:49;;;;;;;;;;;;;;;20.18;31.99;100272.88;5075806;28;973;-56
2021/01/28 07:20:35;;;;;;;;;;;;;;;20.63;31.18;100278.44;5075487;28;739;-51
2021/01/28 07:23:14;;;;;;;;;;;;;;;20.12;32.03;100282.41;5058293;28;1387;-53
2021/01/28 07:25:40;;;;;;;;;;;;;;;19.86;32.39;100282.94;5058493;28;1264;-54
2021/01/28 07:28:06;;;;;;;;;;;;;;;19.62;32.96;100283.13;5061526;28;1913;-53
2021/01/28 07:30:39;;;;;;;;;;;;;;;20.38;31.63;100287.34;5078399;28;773;-52
2021/01/28 07:33:05;;;;;;;;;;;;;;;20.79;30.74;100284.47;5077376;28;820;-53
2021/01/28 07:35:45;;;;;;;;;;;;;;;20.08;32.18;100284.97;5062739;28;1279;-54
2021/01/28 07:38:27;;;;;;;;;;;;;;;19.78;32.81;100287.22;5062820;28;1189;-52
2021/01/28 07:41:14;;;;;;;;;;;;;;;19.24;33.49;100283.31;5096109;28;664;-52
2021/01/28 07:44:24;;;;;;;;;;;;;;;20.20;32.05;100287.19;5094502;28;1006;-48
2021/01/28 07:46:51;;;;;;;;;;;;;;;20.63;31.01;100278.44;5078077;28;2204;-53
2021/01/28 07:49:30;;;;;;;;;;;;;;;20.20;31.88;100278.91;5061740;28;1913;-52
2021/01/28 07:52:17;;;;;;;;;;;;;;;19.89;32.26;100282.31;5096442;28;598;-53
2021/01/28 07:54:46;;;;;;;;;;;;;;;19.40;33.32;100283.81;5096329;28;747;-55
2021/01/28 07:57:12;;;;;;;;;;;;;;;19.96;32.50;100282.75;5089091;28;1142;-56
2021/01/28 07:59:51;;;;;;;;;;;;;;;20.64;31.05;100279.28;5076395;28;954;-50
2021/01/28 08:02:24;;;;;;;;;;;;;;;20.25;31.55;100278.00;5057474;28;874;-51
2021/01/28 08:04:50;;;;;;;;;;;;;;;20.00;32.04;100282.94;5074550;28;833;-55
2021/01/28 08:07:20;;;;;;;;;;;;;;;19.57;32.92;100275.78;5075840;28;795;-52
2021/01/28 08:09:50;;;;;;;;;;;;;;;19.86;32.75;100279.38;5075427;28;1918;-54
2021/01/28 08:12:20;;;;;;;;;;;;;;;20.57;31.41;100281.69;5075161;28;776;-56
2021/01/28 08:14:45;;;;;;;;;;;;;;;20.62;31.13;100281.53;5076685;28;998;-56
2021/01/28 08:17:11;;;;;;;;;;;;;;;20.14;32.16;100282.91;5076002;28;796;-56
2021/01/28 08:19:36;;;;;;;;;;;;;;;20.00;32.52;100280.97;5057449;28;752;-56
2021/01/28 08:22:03;;;;;;;;;;;;;;;19.41;33.39;100291.78;5075735;28;732;-55
2021/01/28 08:24:35;;;;;;;;;;;;;;;20.10;32.02;100285.47;5058114;28;789;-55
2021/01/28 08:27:30;;;;;;;;;;;;;;;20.73;31.03;100291.22;5062172;28;776;-55
2021/01/28 08:30:09;;;;;;;;;;;;;;;20.17;31.70;100288.63;5061306;28;1910;-57
2021/01/28 08:32:35;;;;;;;;;;;;;;;19.97;32.27;100305.63;5079048;28;815;-55
2021/01/28 08:35:01;;;;;;;;;;;;;;;19.36;33.38;100308.41;5078646;28;823;-53
2021/01/28 08:37:28;;;;;;;;;;;;;;;20.08;31.90;100307.03;5078271;28;832;-53
2021/01/28 08:39:53;;;;;;;;;;;;;;;20.60;30.98;100308.66;5079044;28;776;-54
2021/01/28 08:42:19;;;;;;;;;;;;;;;20.06;31.94;100303.75;5078198;28;755;-55
2021/01/28 08:44:45;;;;;;;;;;;;;;;19.90;31.99;100308.78;5079022;28;962;-54
2021/01/28 08:47:18;;;;;;;;;;;;;;;19.26;33.44;100312.19;5078775;28;1138;-50
2021/01/28 08:49:45;;;;;;;;;;;;;;;19.68;32.87;100303.97;5060215;28;1918;-54
2021/01/28 08:52:15;;;;;;;;;;;;;;;20.50;31.09;100302.25;5078665;28;811;-55
2021/01/28 08:54:41;;;;;;;;;;;;;;;20.33;31.38;100302.91;5060833;28;748;-53
2021/01/28 08:57:07;;;;;;;;;;;;;;;19.88;32.27;100299.19;5083986;28;1175;-46
2021/01/28 08:59:42;;;;;;;;;;;;;;;19.57;32.81;100303.38;5078827;28;966;-47
2021/01/28 09:02:10;;;;;;;;;;;;;;;19.35;33.15;100306.81;5080862;28;836;-57
2021/01/28 09:04:36;;;;;;;;;;;;;;;20.27;31.75;100306.09;5062042;28;834;-57
2021/01/28 09:07:01;;;;;;;;;;;;;;;20.74;30.52;100308.66;5080750;28;764;-58
2021/01/28 09:09:28;;;;;;;;;;;;;;;20.21;31.48;100299.06;5098062;28;1976;-55
2021/01/28 09:11:53;;;;;;;;;;;;;;;19.98;31.84;100304.50;5097745;28;807;-55
2021/01/28 09:14:36;;;;;;;;;;;;;;;19.40;33.12;100303.13;5079341;28;1005;-58
2021/01/28 09:17:05;;;;;;;;;;;;;;;20.11;31.80;100306.41;5084668;28;904;-56
2021/01/28 09:19:31;;;;;;;;;;;;;;;20.61;30.98;100304.78;5077400;28;752;-55
2021/01/28 09:22:01;;;;;;;;;;;;;;;20.14;31.52;100305.00;5060379;28;851;-57
2021/01/28 09:24:43;;;;;;;;;;;;;;;19.99;31.86;100301.44;5078054;28;763;-55
2021/01/28 09:27:23;;;;;;;;;;;;;;;19.41;32.99;100297.31;5077218;28;740;-54
2021/01/28 09:29:49;;;;;;;;;;;;;;;19.88;32.08;100301.94;5079939;28;1962;-54
2021/01/28 09:32:18;;;;;;;;;;;;;;;20.56;31.02;100299.38;5098472;28;808;-59
2021/01/28 09:34:43;;;;;;;;;;;;;;;20.18;31.86;100290.25;5096931;28;732;-55
2021/01/28 09:37:37;;;;;;;;;;;;;;;20.03;31.89;100287.81;5098144;28;767;-54
2021/01/28 09:40:10;;;;;;;;;;;;;;;19.61;32.90;100287.00;5093390;28;1136;-53
2021/01/28 09:42:36;;;;;;;;;;;;;;;19.67;32.79;100296.84;5077704;28;1452;-54
2021/01/28 09:45:08;;;;;;;;;;;;;;;20.38;31.56;100293.69;5077634;28;799;-54
2021/01/28 09:47:34;;;;;;;;;;;;;;;20.33;31.56;100293.81;5076875;28;1098;-55
2021/01/28 09:50:02;;;;;;;;;;;;;;;20.10;31.82;100285.47;5077398;28;1901;-55
2021/01/28 09:52:34;;;;;;;;;;;;;;;19.58;32.70;100280.16;5077551;28;729;-55
2021/01/28 09:55:00;;;;;;;;;;;;;;;19.46;32.87;100277.91;5057583;28;861;-53
2021/01/28 09:57:26;;;;;;;;;;;;;;;20.30;31.64;100277.84;5076135;28;941;-53
2021/01/28 09:59:53;;;;;;;;;;;;;;;20.54;30.98;100282.28;5078362;28;1013;-45
2021/01/28 10:02:20;;;;;;;;;;;;;;;20.26;31.63;100274.06;5076543;28;824;-45
2021/01/28 10:04:45;;;;;;;;;;;;;;;19.93;31.97;100277.00;5059433;28;768;-48
2021/01/28 10:07:11;;;;;;;;;;;;;;;19.43;33.16;100274.94;5059340;28;815;-46
2021/01/28 10:09:36;;;;;;;;;;;;;;;20.13;31.88;100271.06;5076611;28;1910;-54
2021/01/28 10:12:02;;;;;;;;;;;;;;;20.68;30.59;100274.81;5078617;28;883;-52
2021/01/28 10:14:27;;;;;;;;;;;;;;;20.09;31.74;100274.72;5095974;28;1005;-55
2021/01/28 10:16:53;;;;;;;;;;;;;;;19.94;32.08;100264.84;5096928;28;779;-50
2021/01/28 10:19:18;;;;;;;;;;;;;;;19.55;32.81;100263.41;5097016;28;961;-48
2021/01/28 10:21:44;;;;;;;;;;;;;;;20.08;31.84;100262.88;5097129;28;807;-55
2021/01/28 10:24:10;;;;;;;;;;;;;;;20.78;30.93;100269.00;5096820;28;847;-54
2021/01/28 10:26:35;;;;;;;;;;;;;;;20.42;31.22;100269.03;5096337;28;827;-54
2021/01/28 10:29:00;;;;;;;;;;;;;;;20.12;31.88;100260.34;5095568;28;1905;-53
2021/01/28 10:31:26;;;;;;;;;;;;;;;19.53;32.56;100263.72;5096995;28;879;-54
2021/01/28 10:33:51;;;;;;;;;;;;;;;19.60;32.93;100266.06;5078514;28;819;-54
2021/01/28 10:36:17;;;;;;;;;;;;;;;20.39;31.10;100267.72;5096642;28;747;-54
2021/01/28 10:38:42;;;;;;;;;;;;;;;20.66;30.77;100261.28;5097230;28;1021;-55
2021/01/28 10:41:08;;;;;;;;;;;;;;;20.22;31.47;100246.28;5096187;28;790;-54
2021/01/28 10:43:33;;;;;;;;;;;;;;;20.02;31.79;100252.25;5095178;28;934;-54
2021/01/28 10:45:59;;;;;;;;;;;;;;;19.31;32.89;100250.63;5096299;28;815;-54
2021/01/28 10:48:24;;;;;;;;;;;;;;;19.91;32.20;100255.25;5095113;28;1914;-54
2021/01/28 10:50:50;;;;;;;;;;;;;;;20.62;30.98;100249.22;5096678;28;831;-48
2021/01/28 10:53:15;;;;;;;;;;;;;;;20.23;31.62;100247.94;5096760;28;870;-56
2021/01/28 10:55:41;;;;;;;;;;;;;;;20.19;31.51;100246.91;5095561;28;894;-55
2021/01/28 10:58:06;;;;;;;;;;;;;;;19.49;32.79;100252.47;5082994;28;1241;-55
2021/01/28 11:00:32;;;;;;;;;;;;;;;19.69;32.38;100249.63;5076417;28;792;-54
2021/01/28 11:02:57;;;;;;;;;;;;;;;20.51;31.27;100243.13;5075640;28;855;-55
2021/01/28 11:05:33;;;;;;;;;;;;;;;20.68;30.80;100252.69;5076001;28;820;-55
2021/01/28 11:07:58;;;;;;;;;;;;;;;20.27;31.31;100250.88;5076406;28;807;-55
2021/01/28 11:10:24;;;;;;;;;;;;;;;19.83;32.21;100251.25;5075559;28;1910;-56
2021/01/28 11:12:54;;;;;;;;;;;;;;;19.35;32.74;100243.41;5076567;28;907;-56
2021/01/28 11:15:20;;;;;;;;;;;;;;;19.94;32.11;100240.84;5076475;28;783;-55
2021/01/28 11:17:46;;;;;;;;;;;;;;;20.66;30.59;100250.22;5074845;28;947;-49
2021/01/28 11:20:12;;;;;;;;;;;;;;;20.36;31.08;100251.78;5076078;28;757;-54
2021/01/28 11:22:38;;;;;;;;;;;;;;;20.28;31.39;100249.75;5076256;28;862;-53
2021/01/28 11:25:05;;;;;;;;;;;;;;;19.65;32.51;100252.16;5075188;28;811;-55
2021/01/28 11:27:30;;;;;;;;;;;;;;;19.53;32.62;100247.19;5058261;28;1021;-55
2021/01/28 11:29:58;;;;;;;;;;;;;;;20.35;31.15;100250.94;5075968;28;1966;-54
2021/01/28 11:32:23;;;;;;;;;;;;;;;21.02;30.27;100245.75;5075160;28;764;-54
2021/01/28 11:34:49;;;;;;;;;;;;;;;21.43;29.34;100243.81;5075957;28;823;-57
2021/01/28 11:37:14;;;;;;;;;;;;;;;20.66;30.50;100243.88;5076007;28;800;-56
2021/01/28 11:39:40;;;;;;;;;;;;;;;20.38;31.29;100241.22;5075428;28;748;-54
2021/01/28 11:42:05;;;;;;;;;;;;;;;19.69;32.47;100239.41;5075977;28;757;-55
2021/01/28 11:44:30;;;;;;;;;;;;;;;19.11;33.35;100238.88;5076163;28;923;-55
2021/01/28 11:46:56;;;;;;;;;;;;;;;19.90;32.03;100234.28;5074910;28;1012;-57
2021/01/28 11:49:21;;;;;;;;;;;;;;;20.65;30.70;100236.69;5075187;28;1913;-55
2021/01/28 11:51:47;;;;;;;;;;;;;;;20.35;31.25;100226.09;5076216;28;836;-56
2021/01/28 11:54:12;;;;;;;;;;;;;;;20.26;31.29;100229.91;5074910;28;840;-55
2021/01/28 11:56:37;;;;;;;;;;;;;;;20.01;31.95;100237.66;5077822;28;1181;-55
2021/01/28 11:59:03;;;;;;;;;;;;;;;19.34;32.92;100233.50;5097293;28;957;-55
2021/01/28 12:01:28;;;;;;;;;;;;;;;20.28;31.50;100236.75;5098887;28;770;-56
2021/01/28 12:03:54;;;;;;;;;;;;;;;20.69;30.70;100243.25;5100054;28;802;-55
2021/01/28 12:06:19;;;;;;;;;;;;;;;20.33;31.35;100238.59;5099824;28;875;-55
2021/01/28 12:08:45;;;;;;;;;;;;;;;20.06;31.71;100243.03;5098769;28;1997;-52
2021/01/28 12:11:10;;;;;;;;;;;;;;;19.54;32.44;100243.28;5100047;28;820;-52
2021/01/28 12:13:36;;;;;;;;;;;;;;;20.42;31.05;100252.47;5098277;28;925;-53
2021/01/28 12:16:01;;;;;;;;;;;;;;;20.75;30.42;100243.94;5098807;28;834;-52
2021/01/28 12:18:27;;;;;;;;;;;;;;;20.27;31.28;100256.38;5099649;28;775;-51
2021/01/28 12:20:52;;;;;;;;;;;;;;;19.96;31.80;100257.06;5098943;28;868;-49
2021/01/28 12:23:17;;;;;;;;;;;;;;;19.35;32.99;100248.91;5098096;28;819;-45
2021/01/28 12:25:43;;;;;;;;;;;;;;;19.79;32.04;100260.44;5099662;28;791;-45
2021/01/28 12:28:08;;;;;;;;;;;;;;;20.65;30.57;100267.94;5079273;28;1001;-47
2021/01/28 12:30:34;;;;;;;;;;;;;;;20.58;30.81;100266.72;5098603;28;1913;-51
2021/01/28 12:32:59;;;;;;;;;;;;;;;20.38;31.04;100260.53;5099241;28;855;-49
2021/01/28 12:35:25;;;;;;;;;;;;;;;20.04;31.80;100261.06;5097776;28;932;-53
2021/01/28 12:37:50;;;;;;;;;;;;;;;19.22;33.05;100269.00;5098777;28;846;-51
2021/01/28 12:40:16;;;;;;;;;;;;;;;20.18;31.30;100276.44;5098949;28;803;-50
2021/01/28 12:42:42;;;;;;;;;;;;;;;20.60;30.55;100273.56;5097761;28;934;-53
2021/01/28 12:45:08;;;;;;;;;;;;;;;20.29;31.17;100279.00;5098855;28;780;-44
2021/01/28 12:47:33;;;;;;;;;;;;;;;20.16;31.49;100275.94;5098580;28;1006;-54
2021/01/28 12:49:58;;;;;;;;;;;;;;;19.53;32.69;100273.94;5099050;28;1906;-46
2021/01/28 12:52:24;;;;;;;;;;;;;;;20.02;31.86;100275.19;5098103;28;828;-54
2021/01/28 12:54:50;;;;;;;;;;;;;;;20.51;31.05;100278.22;5098506;28;855;-51
2021/01/28 12:57:15;;;;;;;;;;;;;;;20.25;31.19;100289.03;5092208;28;1071;-54
2021/01/28 12:59:41;;;;;;;;;;;;;;;20.08;31.52;100287.72;5077694;28;954;-48
2021/01/28 13:02:06;;;;;;;;;;;;;;;19.89;31.86;100278.75;5078415;28;784;-47
2021/01/28 13:04:32;;;;;;;;;;;;;;;19.48;32.74;100278.41;5078221;28;847;-52
2021/01/28 13:06:57;;;;;;;;;;;;;;;20.33;31.23;100286.34;5078391;28;792;-47
2021/01/28 13:09:23;;;;;;;;;;;;;;;20.83;30.33;100293.75;5077930;28;1909;-52
2021/01/28 13:11:48;;;;;;;;;;;;;;;20.27;31.14;100281.22;5077978;28;883;-46
2021/01/28 13:14:13;;;;;;;;;;;;;;;20.00;31.57;100280.97;5078793;28;998;-48
2021/01/28 13:16:39;;;;;;;;;;;;;;;19.53;32.65;100284.97;5077801;28;784;-46
2021/01/28 13:19:04;;;;;;;;;;;;;;;19.75;32.43;100281.50;5078070;28;791;-47
2021/01/28 13:21:30;;;;;;;;;;;;;;;20.44;31.05;100286.94;5078115;28;787;-48